Terminal Aerodrome Forecast
Issued by NWS

Home | Current Version | Previous Version | Text Only | Print | Product List | Glossary On
Versions: 1 2 3 4 5 6 7 8 9 10 11 12 13 14 15 16 17 18 19 20 21 22 23 24 25 26
000
FTUS45 KREV 202300
TAFTRK
TAF
KTRK 202328Z 2100/2124 21013G25KT P6SM VCSH SCT030 BKN050
      TEMPO 2102/2105 22009KT 4SM SHRA BKN025
     FM210700 22007KT P6SM SCT080
     FM211100 VRB03KT P6SM BKN150
     FM211900 27009KT P6SM FEW080 BKN150
      AMD NOT SKED 2102/2112=

USA.gov is the U.S. government's official web portal to all federal, state and local government web resources and services.